createdAt,value
2023-04-27T00:03:49.620Z,14.12
2023-04-27T00:08:51.934Z,14.24
2023-04-27T00:13:54.153Z,14.16
2023-04-27T00:18:56.261Z,14.11
2023-04-27T00:23:58.593Z,14.10
2023-04-27T00:29:00.719Z,13.97
2023-04-27T00:34:02.879Z,13.91
2023-04-27T00:39:06.673Z,14.03
2023-04-27T00:44:08.869Z,14.17
2023-04-27T00:49:11.302Z,14.10
2023-04-27T00:54:16.215Z,13.91
2023-04-27T00:59:19.996Z,13.92
2023-04-27T01:04:22.707Z,13.69
2023-04-27T01:09:24.969Z,13.72
2023-04-27T01:14:27.094Z,13.75
2023-04-27T01:19:29.283Z,13.79
2023-04-27T01:24:31.518Z,13.83
2023-04-27T01:29:33.618Z,13.78
2023-04-27T01:34:35.909Z,13.72
2023-04-27T01:39:38.876Z,13.79
2023-04-27T01:44:41.513Z,13.71
2023-04-27T01:49:44.643Z,13.74
2023-04-27T01:54:46.802Z,13.72
2023-04-27T01:59:48.963Z,13.87
2023-04-27T02:04:51.271Z,13.89
2023-04-27T02:09:53.622Z,13.73
2023-04-27T02:14:55.965Z,13.69
2023-04-27T02:19:58.274Z,13.72
2023-04-27T02:25:00.902Z,13.59
2023-04-27T02:30:06.276Z,13.40
2023-04-27T02:35:09.976Z,13.31
2023-04-27T02:40:13.152Z,13.33
2023-04-27T02:45:15.376Z,13.19
2023-04-27T02:50:17.778Z,13.19
2023-04-27T02:55:21.788Z,13.13
2023-04-27T03:00:24.336Z,13.20
2023-04-27T03:05:28.720Z,13.28
2023-04-27T03:10:30.952Z,13.32
2023-04-27T03:15:33.153Z,13.07
2023-04-27T03:20:35.463Z,12.98
2023-04-27T03:25:37.692Z,13.06
2023-04-27T03:30:41.630Z,13.33
2023-04-27T03:35:43.832Z,13.18
2023-04-27T03:40:46.032Z,13.15
2023-04-27T03:45:48.724Z,13.32
2023-04-27T03:50:51.277Z,13.26
2023-04-27T03:55:53.484Z,13.05
2023-04-27T04:00:57.703Z,13.02
2023-04-27T04:05:59.934Z,13.14
2023-04-27T04:11:02.165Z,13.03
2023-04-27T04:16:09.222Z,13.32
2023-04-27T04:21:11.719Z,12.94
2023-04-27T04:26:15.377Z,12.58
2023-04-27T04:31:18.638Z,12.55
2023-04-27T04:36:20.937Z,11.88
2023-04-27T04:41:24.203Z,12.43
2023-04-27T04:46:26.466Z,12.66
2023-04-27T04:51:28.655Z,12.87
2023-04-27T04:56:30.982Z,13.10
2023-04-27T05:01:33.296Z,13.51
2023-04-27T05:06:35.536Z,13.51
2023-04-27T05:11:37.757Z,13.51
2023-04-27T05:16:40.142Z,13.80
2023-04-27T05:21:42.515Z,13.99
2023-04-27T05:26:44.760Z,14.09
2023-04-27T05:31:47.086Z,14.37
2023-04-27T05:36:49.384Z,14.32
2023-04-27T05:41:51.871Z,14.46
2023-04-27T05:46:54.032Z,14.74
2023-04-27T05:51:56.408Z,14.96
2023-04-27T05:56:58.547Z,15.03
2023-04-27T06:02:00.849Z,14.90
2023-04-27T06:07:08.434Z,14.92
2023-04-27T06:12:10.656Z,15.05
2023-04-27T06:17:12.900Z,15.14
2023-04-27T06:22:15.064Z,15.31
2023-04-27T06:27:17.286Z,15.69
2023-04-27T06:32:19.861Z,15.70
2023-04-27T06:37:22.364Z,15.81
2023-04-27T06:42:24.720Z,16.04
2023-04-27T06:47:26.890Z,16.14
2023-04-27T06:52:29.047Z,15.98
2023-04-27T06:57:31.521Z,16.17
2023-04-27T07:02:33.961Z,16.27
2023-04-27T07:07:36.535Z,16.06
2023-04-27T07:12:39.250Z,16.33
2023-04-27T07:17:42.024Z,16.46
2023-04-27T07:22:45.251Z,16.69
2023-04-27T07:27:47.574Z,16.72
2023-04-27T07:32:54.936Z,16.77
2023-04-27T07:37:57.251Z,17.10
2023-04-27T07:43:00.206Z,17.26
2023-04-27T07:48:02.729Z,17.40
2023-04-27T07:53:05.022Z,17.65
2023-04-27T07:58:07.465Z,17.41
2023-04-27T08:03:09.983Z,17.34
2023-04-27T08:08:12.742Z,17.52
2023-04-27T08:13:14.964Z,17.43
2023-04-27T08:18:18.255Z,17.33
2023-04-27T08:23:20.550Z,17.43
2023-04-27T08:28:23.784Z,17.77
2023-04-27T08:33:25.995Z,18.13
2023-04-27T08:38:28.094Z,18.26
2023-04-27T08:43:36.919Z,18.11
2023-04-27T08:48:39.016Z,18.26
2023-04-27T08:53:49.621Z,18.47
2023-04-27T08:58:56.038Z,18.68
2023-04-27T09:04:02.660Z,18.16
2023-04-27T09:09:05.257Z,18.24
2023-04-27T09:14:19.343Z,18.27
2023-04-27T09:19:25.820Z,18.70
2023-04-27T09:24:29.357Z,19.06
2023-04-27T09:29:36.698Z,19.22
2023-04-27T09:34:40.484Z,19.47
2023-04-27T09:39:43.474Z,19.25
2023-04-27T09:44:46.286Z,19.34
2023-04-27T09:49:51.280Z,19.84
2023-04-27T09:54:58.541Z,19.55
2023-04-27T10:00:50.303Z,19.47
2023-04-27T10:06:27.284Z,19.99
2023-04-27T10:11:44.719Z,19.67
2023-04-27T10:16:51.410Z,19.92
2023-04-27T10:22:03.668Z,20.18
2023-04-27T10:27:08.218Z,20.60
2023-04-27T10:32:13.576Z,20.75
2023-04-27T10:37:16.678Z,20.79
2023-04-27T10:42:29.150Z,20.90
2023-04-27T10:47:42.292Z,20.92
2023-04-27T10:52:44.979Z,20.54
2023-04-27T10:57:51.991Z,20.32
2023-04-27T11:02:55.861Z,20.46
2023-04-27T11:08:19.277Z,20.60
2023-04-27T11:13:24.083Z,21.05
2023-04-27T11:18:30.135Z,21.10
2023-04-27T11:23:39.992Z,21.16
2023-04-27T11:28:44.169Z,20.99
2023-04-27T11:33:50.483Z,21.36
2023-04-27T11:38:58.398Z,21.40
2023-04-27T11:44:10.805Z,21.78
2023-04-27T11:49:13.361Z,21.26
2023-04-27T11:54:16.578Z,21.72
2023-04-27T11:59:27.992Z,21.81
2023-04-27T12:04:31.448Z,21.81
2023-04-27T12:09:34.329Z,22.14
2023-04-27T12:14:37.420Z,22.36
2023-04-27T12:19:39.653Z,22.27
2023-04-27T12:24:43.028Z,22.35
2023-04-27T12:29:45.266Z,22.25
2023-04-27T12:34:47.924Z,22.46
2023-04-27T12:39:50.418Z,22.44
2023-04-27T12:44:52.881Z,22.06
2023-04-27T12:49:55.252Z,22.62
2023-04-27T12:54:59.664Z,22.48
2023-04-27T13:00:02.449Z,22.56
2023-04-27T13:05:06.589Z,22.56
2023-04-27T13:10:09.233Z,22.68
2023-04-27T13:15:11.738Z,23.05
2023-04-27T13:20:14.001Z,23.43
2023-04-27T13:25:17.279Z,23.83
2023-04-27T13:30:19.509Z,24.06
2023-04-27T13:35:21.840Z,24.43
2023-04-27T13:40:24.114Z,24.77
2023-04-27T13:45:26.402Z,25.07
2023-04-27T13:50:28.756Z,25.56
2023-04-27T13:55:31.213Z,25.37
2023-04-27T14:00:37.116Z,25.13
2023-04-27T14:05:39.319Z,24.85
2023-04-27T14:10:42.192Z,25.05
2023-04-27T14:15:44.426Z,25.36
2023-04-27T14:20:46.924Z,25.31
2023-04-27T14:25:49.087Z,25.36
2023-04-27T14:30:52.104Z,25.90
2023-04-27T14:35:54.831Z,25.84
2023-04-27T14:40:57.224Z,26.17
2023-04-27T14:46:05.118Z,26.14
2023-04-27T14:51:23.408Z,26.10
2023-04-27T14:56:25.840Z,26.41
2023-04-27T15:01:28.162Z,26.76
2023-04-27T15:06:30.855Z,27.50
2023-04-27T15:11:33.326Z,28.60
2023-04-27T15:16:35.936Z,30.35
2023-04-27T15:21:38.396Z,31.85
2023-04-27T15:26:41.578Z,32.49
2023-04-27T15:31:44.003Z,33.45
2023-04-27T15:36:46.914Z,34.03
2023-04-27T15:41:49.494Z,34.59
2023-04-27T15:46:51.787Z,34.87
2023-04-27T15:51:55.706Z,34.87
2023-04-27T15:57:01.486Z,34.76
2023-04-27T16:02:04.252Z,34.52
2023-04-27T16:07:09.849Z,34.26
2023-04-27T16:12:12.124Z,33.95
2023-04-27T16:17:14.860Z,33.53
2023-04-27T16:22:17.568Z,33.06
2023-04-27T16:27:21.264Z,32.04
2023-04-27T16:32:23.802Z,30.57
2023-04-27T16:37:26.044Z,27.71
2023-04-27T16:42:28.268Z,25.81
2023-04-27T16:47:31.842Z,24.35
2023-04-27T16:52:34.108Z,23.86
2023-04-27T16:57:36.642Z,23.10
2023-04-27T17:02:40.503Z,22.47
2023-04-27T17:07:44.553Z,22.02
2023-04-27T17:12:46.844Z,21.64
2023-04-27T17:17:49.133Z,21.39
2023-04-27T17:22:51.358Z,21.11
2023-04-27T17:27:53.595Z,20.86
2023-04-27T17:32:55.990Z,20.59
2023-04-27T17:37:58.348Z,20.41
2023-04-27T17:43:00.588Z,20.22
2023-04-27T17:48:03.305Z,20.10
2023-04-27T17:53:05.674Z,19.84
2023-04-27T17:58:08.047Z,19.83
2023-04-27T18:03:11.818Z,19.35
2023-04-27T18:08:14.117Z,19.37
2023-04-27T18:13:16.805Z,19.34
2023-04-27T18:18:23.237Z,19.23
2023-04-27T18:23:27.460Z,19.23
2023-04-27T18:28:29.777Z,18.96
2023-04-27T18:33:32.000Z,18.71
2023-04-27T18:38:34.296Z,18.60
2023-04-27T18:43:39.798Z,17.75
2023-04-27T18:48:42.337Z,17.48
2023-04-27T18:53:44.480Z,17.72
2023-04-27T18:58:48.842Z,17.99
2023-04-27T19:03:51.873Z,18.16
2023-04-27T19:08:54.313Z,18.17
2023-04-27T19:13:57.402Z,18.11
2023-04-27T19:18:59.633Z,17.86
2023-04-27T19:24:02.015Z,17.80
2023-04-27T19:29:04.377Z,17.72
2023-04-27T19:34:06.677Z,17.68
2023-04-27T19:39:09.020Z,17.68
2023-04-27T19:44:11.507Z,17.55
2023-04-27T19:49:14.469Z,17.58
2023-04-27T19:54:17.365Z,17.44
2023-04-27T19:59:19.829Z,17.38
2023-04-27T20:04:22.457Z,17.22
2023-04-27T20:09:25.047Z,17.00
2023-04-27T20:14:29.525Z,16.85
2023-04-27T20:19:32.624Z,16.64
2023-04-27T20:24:35.897Z,16.69
2023-04-27T20:29:38.503Z,16.50
2023-04-27T20:34:40.780Z,16.40
2023-04-27T20:39:43.564Z,16.46
2023-04-27T20:44:48.872Z,16.49
2023-04-27T20:49:51.701Z,16.27
2023-04-27T20:54:54.227Z,16.36
2023-04-27T20:59:56.503Z,16.07
2023-04-27T21:04:58.794Z,16.01
2023-04-27T21:10:06.351Z,16.08
2023-04-27T21:15:09.214Z,15.94
2023-04-27T21:20:11.941Z,15.87
2023-04-27T21:25:14.368Z,15.81
2023-04-27T21:30:16.895Z,15.76
2023-04-27T21:35:19.093Z,15.77
2023-04-27T21:40:21.545Z,15.80
2023-04-27T21:45:24.233Z,15.77
2023-04-27T21:50:26.363Z,15.43
2023-04-27T21:55:28.562Z,15.20
2023-04-27T22:00:30.731Z,15.34
2023-04-27T22:05:33.839Z,15.26
2023-04-27T22:10:36.714Z,15.29
2023-04-27T22:15:42.120Z,15.12
2023-04-27T22:20:44.485Z,15.33
2023-04-27T22:25:47.137Z,15.09
2023-04-27T22:30:49.390Z,15.25
2023-04-27T22:35:51.773Z,14.96
2023-04-27T22:40:53.985Z,14.95
2023-04-27T22:45:56.275Z,14.85
2023-04-27T22:50:58.458Z,14.49
2023-04-27T22:56:01.498Z,14.69
2023-04-27T23:01:04.501Z,14.71
2023-04-27T23:06:08.008Z,14.71
2023-04-27T23:11:13.995Z,14.75
2023-04-27T23:16:16.440Z,14.90
2023-04-27T23:21:18.929Z,14.71
2023-04-27T23:26:21.679Z,14.45
2023-04-27T23:31:24.313Z,14.56
2023-04-27T23:36:26.893Z,14.46
2023-04-27T23:41:29.134Z,14.62
2023-04-27T23:46:31.396Z,14.43
2023-04-27T23:51:34.007Z,14.56
2023-04-27T23:56:37.027Z,14.73
